Time;durP1;ratioP1;P1;durP2;ratioP2;P2;SDS_P1;SDS_P2;PMS_P1;PMS_P2;Temp;Humidity;BMP_temperature;BMP_pressure;BME280_temperature;BME280_humidity;BME280_pressure;Samples;Min_cycle;Max_cycle;Signal;HPM_P1;HPM_P2
2020/02/14 00:00:51;;;;;;;0.6;0.6;;;;;;;4.95;90.27539;94468.61;;;;
2020/02/14 00:01:53;;;;;;;0.6;0.6;;;;;;;4.95;90.27539;94468.61;;;;
2020/02/14 00:02:54;;;;;;;0.6;0.6;;;;;;;4.95;90.27539;94468.61;;;;
2020/02/14 00:03:54;;;;;;;0.6;0.6;;;;;;;4.95;90.27539;94468.61;;;;
2020/02/14 00:04:54;;;;;;;0.6;0.6;;;;;;;4.95;90.27539;94468.61;;;;
2020/02/14 00:05:55;;;;;;;0.6;0.6;;;;;;;4.95;90.27539;94468.61;;;;
2020/02/14 00:06:55;;;;;;;0.6;0.6;;;;;;;4.95;90.27539;94468.61;;;;
2020/02/14 00:07:56;;;;;;;0.6;0.6;;;;;;;4.95;90.27539;94468.61;;;;
2020/02/14 00:08:56;;;;;;;0.5;0.5;;;;;;;4.68;90.22852;94494.89;;;;
2020/02/14 00:09:57;;;;;;;0.5;0.5;;;;;;;4.68;90.22852;94494.89;;;;
2020/02/14 00:10:57;;;;;;;0.5;0.5;;;;;;;4.68;90.22852;94494.89;;;;
2020/02/14 00:11:57;;;;;;;0.5;0.5;;;;;;;4.68;90.22852;94494.89;;;;
2020/02/14 00:12:58;;;;;;;0.5;0.5;;;;;;;4.68;90.22852;94494.89;;;;
2020/02/14 00:13:58;;;;;;;0.5;0.5;;;;;;;4.68;90.22852;94494.89;;;;
2020/02/14 00:14:59;;;;;;;0.5;0.5;;;;;;;4.68;90.22852;94494.89;;;;
2020/02/14 00:15:59;;;;;;;0.5;0.5;;;;;;;4.68;90.22852;94494.89;;;;
2020/02/14 00:17:00;;;;;;;0.5;0.5;;;;;;;4.68;90.22852;94494.89;;;;
2020/02/14 00:23:13;;;;;;;0.6;0.6;;;;;;;4.54;90.96582;94528.53;;;;
2020/02/14 00:24:14;;;;;;;0.6;0.6;;;;;;;4.54;90.96582;94528.53;;;;
2020/02/14 00:25:14;;;;;;;0.6;0.6;;;;;;;4.54;90.96582;94528.53;;;;
2020/02/14 00:26:15;;;;;;;0.6;0.6;;;;;;;4.54;90.96582;94528.53;;;;
2020/02/14 00:27:15;;;;;;;0.6;0.6;;;;;;;4.54;90.96582;94528.53;;;;
2020/02/14 00:28:16;;;;;;;0.6;0.6;;;;;;;4.54;90.96582;94528.53;;;;
2020/02/14 00:29:16;;;;;;;0.6;0.6;;;;;;;4.54;90.96582;94528.53;;;;
2020/02/14 00:30:17;;;;;;;0.65;0.65;;;;;;;4.41;90.69824;94540.64;;;;
2020/02/14 00:31:17;;;;;;;0.65;0.65;;;;;;;4.41;90.69824;94540.64;;;;
2020/02/14 00:32:18;;;;;;;0.65;0.65;;;;;;;4.41;90.69824;94540.64;;;;
2020/02/14 00:33:18;;;;;;;0.65;0.65;;;;;;;4.41;90.69824;94540.64;;;;
2020/02/14 00:34:19;;;;;;;0.65;0.65;;;;;;;4.41;90.69824;94540.64;;;;
2020/02/14 00:35:19;;;;;;;0.65;0.65;;;;;;;4.41;90.69824;94540.64;;;;
2020/02/14 00:36:19;;;;;;;0.65;0.65;;;;;;;4.41;90.69824;94540.64;;;;
2020/02/14 00:37:20;;;;;;;0.65;0.65;;;;;;;4.41;90.69824;94540.64;;;;
2020/02/14 00:38:20;;;;;;;0.65;0.65;;;;;;;4.41;90.69824;94540.64;;;;
2020/02/14 00:39:21;;;;;;;0.65;0.65;;;;;;;4.41;90.69824;94540.64;;;;
2020/02/14 00:40:21;;;;;;;1.6;0.9;;;;;;;4.36;91.00293;94533.29;;;;
2020/02/14 00:41:22;;;;;;;1.6;0.9;;;;;;;4.36;91.00293;94533.29;;;;
2020/02/14 00:42:22;;;;;;;1.6;0.9;;;;;;;4.36;91.00293;94533.29;;;;
2020/02/14 00:43:23;;;;;;;1.6;0.9;;;;;;;4.36;91.00293;94533.29;;;;
2020/02/14 00:44:23;;;;;;;1.6;0.9;;;;;;;4.36;91.00293;94533.29;;;;
2020/02/14 00:45:23;;;;;;;1.6;0.9;;;;;;;4.36;91.00293;94533.29;;;;
2020/02/14 00:46:24;;;;;;;1.6;0.9;;;;;;;4.36;91.00293;94533.29;;;;
2020/02/14 00:47:24;;;;;;;1.6;0.9;;;;;;;4.36;91.00293;94533.29;;;;
2020/02/14 00:48:25;;;;;;;1.6;0.9;;;;;;;4.36;91.00293;94533.29;;;;
2020/02/14 00:49:25;;;;;;;1.6;0.9;;;;;;;4.36;91.00293;94533.29;;;;
2020/02/14 00:50:26;;;;;;;1.6;0.9;;;;;;;4.36;91.00293;94533.29;;;;
2020/02/14 00:51:26;;;;;;;1.5;0.9;;;;;;;4.3;91.49316;94550.17;;;;
2020/02/14 00:52:27;;;;;;;1.5;0.9;;;;;;;4.3;91.49316;94550.17;;;;
2020/02/14 00:53:27;;;;;;;1.5;0.9;;;;;;;4.3;91.49316;94550.17;;;;
2020/02/14 00:54:27;;;;;;;1.5;0.9;;;;;;;4.3;91.49316;94550.17;;;;
2020/02/14 00:55:28;;;;;;;1.5;0.9;;;;;;;4.3;91.49316;94550.17;;;;
2020/02/14 00:56:28;;;;;;;1.5;0.9;;;;;;;4.3;91.49316;94550.17;;;;
2020/02/14 00:57:29;;;;;;;1.5;0.9;;;;;;;4.3;91.49316;94550.17;;;;
2020/02/14 00:58:29;;;;;;;1.5;0.9;;;;;;;4.3;91.49316;94550.17;;;;
2020/02/14 00:59:30;;;;;;;1.5;0.9;;;;;;;4.3;91.49316;94550.17;;;;
2020/02/14 01:00:30;;;;;;;1.5;0.9;;;;;;;4.3;91.49316;94550.17;;;;
2020/02/14 01:01:31;;;;;;;2.15;0.8;;;;;;;4.31;91.75684;94594.17;;;;
2020/02/14 01:02:31;;;;;;;2.15;0.8;;;;;;;4.31;91.75684;94594.17;;;;
2020/02/14 01:03:32;;;;;;;2.15;0.8;;;;;;;4.31;91.75684;94594.17;;;;
2020/02/14 01:04:32;;;;;;;2.15;0.8;;;;;;;4.31;91.75684;94594.17;;;;
2020/02/14 01:05:33;;;;;;;2.15;0.8;;;;;;;4.31;91.75684;94594.17;;;;
2020/02/14 01:11:46;;;;;;;1.5;0.8;;;;;;;4.38;91.80273;94619.92;;;;
2020/02/14 01:12:46;;;;;;;1.5;0.8;;;;;;;4.38;91.80273;94619.92;;;;
2020/02/14 01:13:47;;;;;;;1.5;0.8;;;;;;;4.38;91.80273;94619.92;;;;
2020/02/14 01:14:47;;;;;;;1.5;0.8;;;;;;;4.38;91.80273;94619.92;;;;
2020/02/14 01:15:48;;;;;;;1.5;0.8;;;;;;;4.38;91.80273;94619.92;;;;
2020/02/14 01:16:48;;;;;;;1.5;0.8;;;;;;;4.38;91.80273;94619.92;;;;
2020/02/14 01:17:49;;;;;;;1.5;0.8;;;;;;;4.38;91.80273;94619.92;;;;
2020/02/14 01:18:49;;;;;;;1.5;0.8;;;;;;;4.38;91.80273;94619.92;;;;
2020/02/14 01:19:49;;;;;;;1.5;0.8;;;;;;;4.38;91.80273;94619.92;;;;
2020/02/14 01:20:50;;;;;;;1.5;0.8;;;;;;;4.38;91.80273;94619.92;;;;
2020/02/14 01:21:50;;;;;;;1.5;0.8;;;;;;;4.38;91.80273;94619.92;;;;
2020/02/14 01:22:51;;;;;;;1.3;0.9;;;;;;;4.58;91.75195;94641.09;;;;
2020/02/14 01:23:51;;;;;;;1.3;0.9;;;;;;;4.58;91.75195;94641.09;;;;
2020/02/14 01:24:52;;;;;;;1.3;0.9;;;;;;;4.58;91.75195;94641.09;;;;
2020/02/14 01:25:52;;;;;;;1.3;0.9;;;;;;;4.58;91.75195;94641.09;;;;
2020/02/14 01:26:53;;;;;;;1.3;0.9;;;;;;;4.58;91.75195;94641.09;;;;
2020/02/14 01:27:54;;;;;;;1.3;0.9;;;;;;;4.58;91.75195;94641.09;;;;
2020/02/14 01:28:54;;;;;;;1.3;0.9;;;;;;;4.58;91.75195;94641.09;;;;
2020/02/14 01:29:55;;;;;;;1.3;0.9;;;;;;;4.58;91.75195;94641.09;;;;
2020/02/14 01:30:55;;;;;;;1.3;0.9;;;;;;;4.58;91.75195;94641.09;;;;
2020/02/14 01:31:55;;;;;;;1.3;0.9;;;;;;;4.58;91.75195;94641.09;;;;
2020/02/14 01:32:56;;;;;;;1.3;0.9;;;;;;;4.58;91.75195;94641.09;;;;
2020/02/14 01:33:56;;;;;;;1.5;0.9;;;;;;;4.61;91.46484;94642.91;;;;
2020/02/14 01:34:57;;;;;;;1.5;0.9;;;;;;;4.61;91.46484;94642.91;;;;
2020/02/14 01:35:57;;;;;;;1.5;0.9;;;;;;;4.61;91.46484;94642.91;;;;
2020/02/14 01:36:58;;;;;;;1.5;0.9;;;;;;;4.61;91.46484;94642.91;;;;
2020/02/14 01:37:58;;;;;;;1.5;0.9;;;;;;;4.61;91.46484;94642.91;;;;
2020/02/14 01:38:59;;;;;;;1.5;0.9;;;;;;;4.61;91.46484;94642.91;;;;
2020/02/14 01:40:11;;;;;;;1.5;0.9;;;;;;;4.61;91.46484;94642.91;;;;
2020/02/14 01:41:11;;;;;;;1.5;0.9;;;;;;;4.61;91.46484;94642.91;;;;
2020/02/14 01:42:12;;;;;;;1.5;0.9;;;;;;;4.61;91.46484;94642.91;;;;
2020/02/14 01:43:12;;;;;;;1.5;0.9;;;;;;;4.61;91.46484;94642.91;;;;
2020/02/14 01:44:13;;;;;;;1.35;0.9;;;;;;;4.56;91.42285;94653.85;;;;
2020/02/14 01:45:14;;;;;;;1.35;0.9;;;;;;;4.56;91.42285;94653.85;;;;
2020/02/14 01:46:15;;;;;;;1.35;0.9;;;;;;;4.56;91.42285;94653.85;;;;
2020/02/14 01:47:16;;;;;;;1.35;0.9;;;;;;;4.56;91.42285;94653.85;;;;
2020/02/14 01:48:16;;;;;;;1.35;0.9;;;;;;;4.56;91.42285;94653.85;;;;
2020/02/14 01:49:17;;;;;;;1.35;0.9;;;;;;;4.56;91.42285;94653.85;;;;
2020/02/14 01:50:19;;;;;;;1.35;0.9;;;;;;;4.56;91.42285;94653.85;;;;
2020/02/14 01:51:19;;;;;;;1.35;0.9;;;;;;;4.56;91.42285;94653.85;;;;
2020/02/14 01:52:20;;;;;;;1.35;0.9;;;;;;;4.56;91.42285;94653.85;;;;
2020/02/14 01:53:21;;;;;;;1.35;0.9;;;;;;;4.56;91.42285;94653.85;;;;
2020/02/14 01:54:22;;;;;;;2.4;0.95;;;;;;;4.32;91.85352;94648.82;;;;
2020/02/14 01:55:22;;;;;;;2.4;0.95;;;;;;;4.32;91.85352;94648.82;;;;
2020/02/14 01:56:23;;;;;;;2.4;0.95;;;;;;;4.32;91.85352;94648.82;;;;
2020/02/14 01:57:24;;;;;;;2.4;0.95;;;;;;;4.32;91.85352;94648.82;;;;
2020/02/14 01:58:24;;;;;;;2.4;0.95;;;;;;;4.32;91.85352;94648.82;;;;
2020/02/14 01:59:25;;;;;;;2.4;0.95;;;;;;;4.32;91.85352;94648.82;;;;
2020/02/14 02:00:25;;;;;;;2.4;0.95;;;;;;;4.32;91.85352;94648.82;;;;
2020/02/14 02:01:25;;;;;;;2.4;0.95;;;;;;;4.32;91.85352;94648.82;;;;
2020/02/14 02:02:26;;;;;;;2.4;0.95;;;;;;;4.32;91.85352;94648.82;;;;
2020/02/14 02:03:27;;;;;;;2.4;0.95;;;;;;;4.32;91.85352;94648.82;;;;
2020/02/14 02:04:27;;;;;;;2.4;0.95;;;;;;;4.32;91.85352;94648.82;;;;
2020/02/14 02:05:28;;;;;;;1.8;0.95;;;;;;;4.29;92.62402;94659.44;;;;
2020/02/14 02:06:28;;;;;;;1.8;0.95;;;;;;;4.29;92.62402;94659.44;;;;
2020/02/14 02:07:29;;;;;;;1.8;0.95;;;;;;;4.29;92.62402;94659.44;;;;
2020/02/14 02:08:29;;;;;;;1.8;0.95;;;;;;;4.29;92.62402;94659.44;;;;
2020/02/14 02:09:30;;;;;;;1.8;0.95;;;;;;;4.29;92.62402;94659.44;;;;
2020/02/14 02:10:30;;;;;;;1.8;0.95;;;;;;;4.29;92.62402;94659.44;;;;
2020/02/14 02:11:30;;;;;;;1.8;0.95;;;;;;;4.29;92.62402;94659.44;;;;
2020/02/14 02:17:49;;;;;;;2.4;1.1;;;;;;;4.43;92.72754;94651.65;;;;
2020/02/14 02:18:51;;;;;;;2.4;1.1;;;;;;;4.43;92.72754;94651.65;;;;
2020/02/14 02:20:57;;;;;;;2.4;1.1;;;;;;;4.43;92.72754;94651.65;;;;
2020/02/14 02:21:58;;;;;;;2.4;1.1;;;;;;;4.43;92.72754;94651.65;;;;
2020/02/14 02:22:59;;;;;;;2.4;1.1;;;;;;;4.43;92.72754;94651.65;;;;
2020/02/14 02:23:59;;;;;;;2.4;1.1;;;;;;;4.43;92.72754;94651.65;;;;
2020/02/14 02:25:00;;;;;;;2.4;1.1;;;;;;;4.43;92.72754;94651.65;;;;
2020/02/14 02:26:00;;;;;;;2.4;1.1;;;;;;;4.43;92.72754;94651.65;;;;
2020/02/14 02:27:01;;;;;;;2.4;0.9;;;;;;;4.6;92.7959;94672.44;;;;
2020/02/14 02:28:01;;;;;;;2.4;0.9;;;;;;;4.6;92.7959;94672.44;;;;
2020/02/14 02:29:02;;;;;;;2.4;0.9;;;;;;;4.6;92.7959;94672.44;;;;
2020/02/14 02:30:02;;;;;;;2.4;0.9;;;;;;;4.6;92.7959;94672.44;;;;
2020/02/14 02:31:03;;;;;;;2.4;0.9;;;;;;;4.6;92.7959;94672.44;;;;
2020/02/14 02:32:03;;;;;;;2.4;0.9;;;;;;;4.6;92.7959;94672.44;;;;
2020/02/14 02:33:04;;;;;;;2.4;0.9;;;;;;;4.6;92.7959;94672.44;;;;
2020/02/14 02:34:04;;;;;;;2.4;0.9;;;;;;;4.6;92.7959;94672.44;;;;
2020/02/14 02:35:05;;;;;;;2.4;0.9;;;;;;;4.6;92.7959;94672.44;;;;
2020/02/14 02:36:05;;;;;;;2.4;0.9;;;;;;;4.6;92.7959;94672.44;;;;
2020/02/14 02:37:06;;;;;;;4.35;1.2;;;;;;;4.58;93.03223;94679.85;;;;
2020/02/14 02:38:06;;;;;;;4.35;1.2;;;;;;;4.58;93.03223;94679.85;;;;
2020/02/14 02:39:06;;;;;;;4.35;1.2;;;;;;;4.58;93.03223;94679.85;;;;
2020/02/14 02:40:07;;;;;;;4.35;1.2;;;;;;;4.58;93.03223;94679.85;;;;
2020/02/14 02:41:08;;;;;;;4.35;1.2;;;;;;;4.58;93.03223;94679.85;;;;
2020/02/14 02:42:08;;;;;;;4.35;1.2;;;;;;;4.58;93.03223;94679.85;;;;
2020/02/14 02:43:09;;;;;;;4.35;1.2;;;;;;;4.58;93.03223;94679.85;;;;
2020/02/14 02:44:09;;;;;;;4.35;1.2;;;;;;;4.58;93.03223;94679.85;;;;
2020/02/14 02:45:10;;;;;;;4.35;1.2;;;;;;;4.58;93.03223;94679.85;;;;
2020/02/14 02:46:10;;;;;;;4.35;1.2;;;;;;;4.58;93.03223;94679.85;;;;
2020/02/14 02:47:11;;;;;;;4.35;1.2;;;;;;;4.58;93.03223;94679.85;;;;
2020/02/14 02:48:11;;;;;;;1.15;0.95;;;;;;;4.66;94.00391;94686.81;;;;
2020/02/14 02:49:11;;;;;;;1.15;0.95;;;;;;;4.66;94.00391;94686.81;;;;
2020/02/14 02:50:12;;;;;;;1.15;0.95;;;;;;;4.66;94.00391;94686.81;;;;
2020/02/14 02:51:12;;;;;;;1.15;0.95;;;;;;;4.66;94.00391;94686.81;;;;
2020/02/14 02:52:13;;;;;;;1.15;0.95;;;;;;;4.66;94.00391;94686.81;;;;
2020/02/14 02:53:13;;;;;;;1.15;0.95;;;;;;;4.66;94.00391;94686.81;;;;
2020/02/14 02:54:14;;;;;;;1.15;0.95;;;;;;;4.66;94.00391;94686.81;;;;
2020/02/14 02:55:14;;;;;;;1.15;0.95;;;;;;;4.66;94.00391;94686.81;;;;
2020/02/14 02:56:15;;;;;;;1.15;0.95;;;;;;;4.66;94.00391;94686.81;;;;
2020/02/14 02:57:15;;;;;;;1.15;0.95;;;;;;;4.66;94.00391;94686.81;;;;
2020/02/14 02:58:15;;;;;;;2.1;1;;;;;;;4.6;93.72949;94696.91;;;;
2020/02/14 02:59:16;;;;;;;2.1;1;;;;;;;4.6;93.72949;94696.91;;;;
2020/02/14 03:00:16;;;;;;;2.1;1;;;;;;;4.6;93.72949;94696.91;;;;
2020/02/14 03:01:20;;;;;;;2.1;1;;;;;;;4.6;93.72949;94696.91;;;;
2020/02/14 03:02:20;;;;;;;2.1;1;;;;;;;4.6;93.72949;94696.91;;;;
2020/02/14 03:03:20;;;;;;;2.1;1;;;;;;;4.6;93.72949;94696.91;;;;
2020/02/14 03:04:21;;;;;;;2.1;1;;;;;;;4.6;93.72949;94696.91;;;;
2020/02/14 03:05:21;;;;;;;2.1;1;;;;;;;4.6;93.72949;94696.91;;;;
2020/02/14 03:06:22;;;;;;;2.1;1;;;;;;;4.6;93.72949;94696.91;;;;
2020/02/14 03:07:22;;;;;;;2.1;1;;;;;;;4.6;93.72949;94696.91;;;;
2020/02/14 03:08:23;;;;;;;2.1;1;;;;;;;4.6;93.72949;94696.91;;;;
2020/02/14 03:09:23;;;;;;;3.9;1.1;;;;;;;4.58;94.0166;94705.76;;;;
2020/02/14 03:10:24;;;;;;;3.9;1.1;;;;;;;4.58;94.0166;94705.76;;;;
2020/02/14 03:11:24;;;;;;;3.9;1.1;;;;;;;4.58;94.0166;94705.76;;;;
2020/02/14 03:12:25;;;;;;;3.9;1.1;;;;;;;4.58;94.0166;94705.76;;;;
2020/02/14 03:13:25;;;;;;;3.9;1.1;;;;;;;4.58;94.0166;94705.76;;;;
2020/02/14 03:14:25;;;;;;;3.9;1.1;;;;;;;4.58;94.0166;94705.76;;;;
2020/02/14 03:15:26;;;;;;;3.9;1.1;;;;;;;4.58;94.0166;94705.76;;;;
2020/02/14 03:16:26;;;;;;;3.9;1.1;;;;;;;4.58;94.0166;94705.76;;;;
2020/02/14 03:17:27;;;;;;;3.9;1.1;;;;;;;4.58;94.0166;94705.76;;;;
2020/02/14 03:18:27;;;;;;;3.9;1.1;;;;;;;4.58;94.0166;94705.76;;;;
2020/02/14 03:19:28;;;;;;;3.15;1.3;;;;;;;4.44;94.32422;94717.04;;;;
2020/02/14 03:20:28;;;;;;;3.15;1.3;;;;;;;4.44;94.32422;94717.04;;;;
2020/02/14 03:21:29;;;;;;;3.15;1.3;;;;;;;4.44;94.32422;94717.04;;;;
2020/02/14 03:22:29;;;;;;;3.15;1.3;;;;;;;4.44;94.32422;94717.04;;;;
2020/02/14 03:23:30;;;;;;;3.15;1.3;;;;;;;4.44;94.32422;94717.04;;;;
2020/02/14 03:24:30;;;;;;;3.15;1.3;;;;;;;4.44;94.32422;94717.04;;;;
2020/02/14 03:25:31;;;;;;;3.15;1.3;;;;;;;4.44;94.32422;94717.04;;;;
2020/02/14 03:26:31;;;;;;;3.15;1.3;;;;;;;4.44;94.32422;94717.04;;;;
2020/02/14 03:27:31;;;;;;;3.15;1.3;;;;;;;4.44;94.32422;94717.04;;;;
2020/02/14 03:28:32;;;;;;;3.15;1.3;;;;;;;4.44;94.32422;94717.04;;;;
2020/02/14 03:29:32;;;;;;;3.15;1.3;;;;;;;4.44;94.32422;94717.04;;;;
2020/02/14 03:30:33;;;;;;;2.25;0.95;;;;;;;4.41;94.52734;94735.74;;;;
2020/02/14 03:31:33;;;;;;;2.25;0.95;;;;;;;4.41;94.52734;94735.74;;;;
2020/02/14 03:32:34;;;;;;;2.25;0.95;;;;;;;4.41;94.52734;94735.74;;;;
2020/02/14 03:33:34;;;;;;;2.25;0.95;;;;;;;4.41;94.52734;94735.74;;;;
2020/02/14 03:34:35;;;;;;;2.25;0.95;;;;;;;4.41;94.52734;94735.74;;;;
2020/02/14 03:35:35;;;;;;;2.25;0.95;;;;;;;4.41;94.52734;94735.74;;;;
2020/02/14 03:36:36;;;;;;;2.25;0.95;;;;;;;4.41;94.52734;94735.74;;;;
2020/02/14 03:37:36;;;;;;;2.25;0.95;;;;;;;4.41;94.52734;94735.74;;;;
2020/02/14 03:38:37;;;;;;;2.25;0.95;;;;;;;4.41;94.52734;94735.74;;;;
2020/02/14 03:39:37;;;;;;;2.25;0.95;;;;;;;4.41;94.52734;94735.74;;;;
2020/02/14 03:40:37;;;;;;;1.65;0.8;;;;;;;4.39;94.7832;94764.14;;;;
2020/02/14 03:41:39;;;;;;;1.65;0.8;;;;;;;4.39;94.7832;94764.14;;;;
2020/02/14 03:42:40;;;;;;;1.65;0.8;;;;;;;4.39;94.7832;94764.14;;;;
2020/02/14 03:43:40;;;;;;;1.65;0.8;;;;;;;4.39;94.7832;94764.14;;;;
2020/02/14 03:44:41;;;;;;;1.65;0.8;;;;;;;4.39;94.7832;94764.14;;;;
2020/02/14 03:45:41;;;;;;;1.65;0.8;;;;;;;4.39;94.7832;94764.14;;;;
2020/02/14 03:46:42;;;;;;;1.65;0.8;;;;;;;4.39;94.7832;94764.14;;;;
2020/02/14 03:47:42;;;;;;;1.65;0.8;;;;;;;4.39;94.7832;94764.14;;;;
2020/02/14 03:48:43;;;;;;;1.65;0.8;;;;;;;4.39;94.7832;94764.14;;;;
2020/02/14 03:49:44;;;;;;;1.65;0.8;;;;;;;4.39;94.7832;94764.14;;;;
2020/02/14 03:50:45;;;;;;;1.65;0.8;;;;;;;4.39;94.7832;94764.14;;;;
2020/02/14 03:51:46;;;;;;;1.7;1;;;;;;;4.48;94.80371;94788.26;;;;
2020/02/14 03:52:47;;;;;;;1.7;1;;;;;;;4.48;94.80371;94788.26;;;;
2020/02/14 03:53:47;;;;;;;1.7;1;;;;;;;4.48;94.80371;94788.26;;;;
2020/02/14 03:54:48;;;;;;;1.7;1;;;;;;;4.48;94.80371;94788.26;;;;
2020/02/14 03:55:48;;;;;;;1.7;1;;;;;;;4.48;94.80371;94788.26;;;;
2020/02/14 03:56:49;;;;;;;1.7;1;;;;;;;4.48;94.80371;94788.26;;;;
2020/02/14 03:57:49;;;;;;;1.7;1;;;;;;;4.48;94.80371;94788.26;;;;
2020/02/14 03:58:50;;;;;;;1.7;1;;;;;;;4.48;94.80371;94788.26;;;;
2020/02/14 03:59:50;;;;;;;1.7;1;;;;;;;4.48;94.80371;94788.26;;;;
2020/02/14 04:00:51;;;;;;;1.7;1;;;;;;;4.48;94.80371;94788.26;;;;
2020/02/14 04:01:51;;;;;;;1.7;0.9;;;;;;;4.4;94.70313;94801.34;;;;
2020/02/14 04:02:51;;;;;;;1.7;0.9;;;;;;;4.4;94.70313;94801.34;;;;
2020/02/14 04:03:52;;;;;;;1.7;0.9;;;;;;;4.4;94.70313;94801.34;;;;
2020/02/14 04:04:52;;;;;;;1.7;0.9;;;;;;;4.4;94.70313;94801.34;;;;
2020/02/14 04:05:53;;;;;;;1.7;0.9;;;;;;;4.4;94.70313;94801.34;;;;
2020/02/14 04:06:53;;;;;;;1.7;0.9;;;;;;;4.4;94.70313;94801.34;;;;
2020/02/14 04:07:54;;;;;;;1.7;0.9;;;;;;;4.4;94.70313;94801.34;;;;
2020/02/14 04:08:54;;;;;;;1.7;0.9;;;;;;;4.4;94.70313;94801.34;;;;
2020/02/14 04:09:55;;;;;;;1.7;0.9;;;;;;;4.4;94.70313;94801.34;;;;
2020/02/14 04:11:26;;;;;;;1.7;0.9;;;;;;;4.4;94.70313;94801.34;;;;
2020/02/14 04:12:27;;;;;;;2.4;0.9;;;;;;;4.38;94.98047;94849.75;;;;
2020/02/14 04:13:27;;;;;;;2.4;0.9;;;;;;;4.38;94.98047;94849.75;;;;
2020/02/14 04:14:28;;;;;;;2.4;0.9;;;;;;;4.38;94.98047;94849.75;;;;
2020/02/14 04:15:29;;;;;;;2.4;0.9;;;;;;;4.38;94.98047;94849.75;;;;
2020/02/14 04:16:29;;;;;;;2.4;0.9;;;;;;;4.38;94.98047;94849.75;;;;
2020/02/14 04:17:29;;;;;;;2.4;0.9;;;;;;;4.38;94.98047;94849.75;;;;
2020/02/14 04:18:50;;;;;;;2.4;0.9;;;;;;;4.38;94.98047;94849.75;;;;
2020/02/14 04:19:51;;;;;;;2.4;0.9;;;;;;;4.38;94.98047;94849.75;;;;
2020/02/14 04:20:53;;;;;;;2.4;0.9;;;;;;;4.38;94.98047;94849.75;;;;
2020/02/14 04:22:01;;;;;;;2.4;0.9;;;;;;;4.38;94.98047;94849.75;;;;
2020/02/14 04:23:02;;;;;;;2;1;;;;;;;4.4;95.25684;94861.97;;;;
2020/02/14 04:24:02;;;;;;;2;1;;;;;;;4.4;95.25684;94861.97;;;;
2020/02/14 04:25:03;;;;;;;2;1;;;;;;;4.4;95.25684;94861.97;;;;
2020/02/14 04:26:03;;;;;;;2;1;;;;;;;4.4;95.25684;94861.97;;;;
2020/02/14 04:27:04;;;;;;;2;1;;;;;;;4.4;95.25684;94861.97;;;;
2020/02/14 04:28:27;;;;;;;2;1;;;;;;;4.4;95.25684;94861.97;;;;
2020/02/14 04:29:27;;;;;;;2;1;;;;;;;4.4;95.25684;94861.97;;;;
2020/02/14 04:30:28;;;;;;;2;1;;;;;;;4.4;95.25684;94861.97;;;;
2020/02/14 04:31:29;;;;;;;2;1;;;;;;;4.4;95.25684;94861.97;;;;
2020/02/14 04:32:30;;;;;;;2;1;;;;;;;4.4;95.25684;94861.97;;;;
2020/02/14 04:33:31;;;;;;;1.7;1;;;;;;;4.47;95.48145;94886.84;;;;
2020/02/14 04:34:31;;;;;;;1.7;1;;;;;;;4.47;95.48145;94886.84;;;;
2020/02/14 04:35:32;;;;;;;1.7;1;;;;;;;4.47;95.48145;94886.84;;;;
2020/02/14 04:36:32;;;;;;;1.7;1;;;;;;;4.47;95.48145;94886.84;;;;
2020/02/14 04:37:32;;;;;;;1.7;1;;;;;;;4.47;95.48145;94886.84;;;;
2020/02/14 04:38:33;;;;;;;1.7;1;;;;;;;4.47;95.48145;94886.84;;;;
2020/02/14 04:39:33;;;;;;;1.7;1;;;;;;;4.47;95.48145;94886.84;;;;
2020/02/14 04:40:34;;;;;;;1.7;1;;;;;;;4.47;95.48145;94886.84;;;;
2020/02/14 04:41:34;;;;;;;1.7;1;;;;;;;4.47;95.48145;94886.84;;;;
2020/02/14 04:42:35;;;;;;;1.7;1;;;;;;;4.47;95.48145;94886.84;;;;
2020/02/14 04:43:35;;;;;;;1.7;1;;;;;;;4.47;95.48145;94886.84;;;;
2020/02/14 04:44:36;;;;;;;2.3;1.2;;;;;;;4.42;95.37598;94917.8;;;;
2020/02/14 04:45:36;;;;;;;2.3;1.2;;;;;;;4.42;95.37598;94917.8;;;;
2020/02/14 04:46:37;;;;;;;2.3;1.2;;;;;;;4.42;95.37598;94917.8;;;;
2020/02/14 04:47:37;;;;;;;2.3;1.2;;;;;;;4.42;95.37598;94917.8;;;;
2020/02/14 04:48:38;;;;;;;2.3;1.2;;;;;;;4.42;95.37598;94917.8;;;;
2020/02/14 04:49:38;;;;;;;2.3;1.2;;;;;;;4.42;95.37598;94917.8;;;;
2020/02/14 04:50:38;;;;;;;2.3;1.2;;;;;;;4.42;95.37598;94917.8;;;;
2020/02/14 04:51:40;;;;;;;2.3;1.2;;;;;;;4.42;95.37598;94917.8;;;;
2020/02/14 04:52:41;;;;;;;2.3;1.2;;;;;;;4.42;95.37598;94917.8;;;;
2020/02/14 04:53:41;;;;;;;2.3;1.2;;;;;;;4.42;95.37598;94917.8;;;;
2020/02/14 04:54:42;;;;;;;2.25;1.1;;;;;;;4.58;95.67383;94951.7;;;;
2020/02/14 04:55:42;;;;;;;2.25;1.1;;;;;;;4.58;95.67383;94951.7;;;;
2020/02/14 04:56:43;;;;;;;2.25;1.1;;;;;;;4.58;95.67383;94951.7;;;;
2020/02/14 04:57:43;;;;;;;2.25;1.1;;;;;;;4.58;95.67383;94951.7;;;;
2020/02/14 04:58:43;;;;;;;2.25;1.1;;;;;;;4.58;95.67383;94951.7;;;;
2020/02/14 04:59:44;;;;;;;2.25;1.1;;;;;;;4.58;95.67383;94951.7;;;;
2020/02/14 05:00:44;;;;;;;2.25;1.1;;;;;;;4.58;95.67383;94951.7;;;;
2020/02/14 05:01:45;;;;;;;2.25;1.1;;;;;;;4.58;95.67383;94951.7;;;;
2020/02/14 05:02:46;;;;;;;2.25;1.1;;;;;;;4.58;95.67383;94951.7;;;;
2020/02/14 05:03:46;;;;;;;2.25;1.1;;;;;;;4.58;95.67383;94951.7;;;;
2020/02/14 05:04:47;;;;;;;2.25;1.1;;;;;;;4.58;95.67383;94951.7;;;;
2020/02/14 05:05:47;;;;;;;2.55;1;;;;;;;4.71;95.40918;94968.57;;;;
2020/02/14 05:06:48;;;;;;;2.55;1;;;;;;;4.71;95.40918;94968.57;;;;
2020/02/14 05:07:48;;;;;;;2.55;1;;;;;;;4.71;95.40918;94968.57;;;;
2020/02/14 05:08:49;;;;;;;2.55;1;;;;;;;4.71;95.40918;94968.57;;;;
2020/02/14 05:09:49;;;;;;;2.55;1;;;;;;;4.71;95.40918;94968.57;;;;
2020/02/14 05:10:50;;;;;;;2.55;1;;;;;;;4.71;95.40918;94968.57;;;;
2020/02/14 05:11:50;;;;;;;2.55;1;;;;;;;4.71;95.40918;94968.57;;;;
2020/02/14 05:12:50;;;;;;;2.55;1;;;;;;;4.71;95.40918;94968.57;;;;
2020/02/14 05:13:51;;;;;;;2.55;1;;;;;;;4.71;95.40918;94968.57;;;;
2020/02/14 05:14:51;;;;;;;2.55;1;;;;;;;4.71;95.40918;94968.57;;;;
2020/02/14 05:16:07;;;;;;;3.05;1.2;;;;;;;4.77;95.58105;94978.83;;;;
2020/02/14 05:17:08;;;;;;;3.05;1.2;;;;;;;4.77;95.58105;94978.83;;;;
2020/02/14 05:18:08;;;;;;;3.05;1.2;;;;;;;4.77;95.58105;94978.83;;;;
2020/02/14 05:19:08;;;;;;;3.05;1.2;;;;;;;4.77;95.58105;94978.83;;;;
2020/02/14 05:20:09;;;;;;;3.05;1.2;;;;;;;4.77;95.58105;94978.83;;;;
2020/02/14 05:21:09;;;;;;;3.05;1.2;;;;;;;4.77;95.58105;94978.83;;;;
2020/02/14 05:22:10;;;;;;;3.05;1.2;;;;;;;4.77;95.58105;94978.83;;;;
2020/02/14 05:23:10;;;;;;;3.05;1.2;;;;;;;4.77;95.58105;94978.83;;;;
2020/02/14 05:24:11;;;;;;;3.05;1.2;;;;;;;4.77;95.58105;94978.83;;;;
2020/02/14 05:25:11;;;;;;;3.05;1.2;;;;;;;4.77;95.58105;94978.83;;;;
2020/02/14 05:26:12;;;;;;;3.05;1.2;;;;;;;4.77;95.58105;94978.83;;;;
2020/02/14 05:27:12;;;;;;;1.65;1.1;;;;;;;4.75;95.3877;95008.13;;;;
2020/02/14 05:28:13;;;;;;;1.65;1.1;;;;;;;4.75;95.3877;95008.13;;;;
2020/02/14 05:29:13;;;;;;;1.65;1.1;;;;;;;4.75;95.3877;95008.13;;;;
2020/02/14 05:30:14;;;;;;;1.65;1.1;;;;;;;4.75;95.3877;95008.13;;;;
2020/02/14 05:31:14;;;;;;;1.65;1.1;;;;;;;4.75;95.3877;95008.13;;;;
2020/02/14 05:32:14;;;;;;;1.65;1.1;;;;;;;4.75;95.3877;95008.13;;;;
2020/02/14 05:33:15;;;;;;;1.65;1.1;;;;;;;4.75;95.3877;95008.13;;;;
2020/02/14 05:34:15;;;;;;;1.65;1.1;;;;;;;4.75;95.3877;95008.13;;;;
2020/02/14 05:35:16;;;;;;;1.65;1.1;;;;;;;4.75;95.3877;95008.13;;;;
2020/02/14 05:36:16;;;;;;;1.65;1.1;;;;;;;4.75;95.3877;95008.13;;;;
2020/02/14 05:37:17;;;;;;;3.9;1.4;;;;;;;4.77;95.80176;95031.07;;;;
2020/02/14 05:38:17;;;;;;;3.9;1.4;;;;;;;4.77;95.80176;95031.07;;;;
2020/02/14 05:39:17;;;;;;;3.9;1.4;;;;;;;4.77;95.80176;95031.07;;;;
2020/02/14 05:45:31;;;;;;;3.9;1.4;;;;;;;4.77;95.80176;95031.07;;;;
2020/02/14 05:46:33;;;;;;;3.9;1.4;;;;;;;4.77;95.80176;95031.07;;;;
2020/02/14 05:47:33;;;;;;;3.9;1.4;;;;;;;4.77;95.80176;95031.07;;;;
2020/02/14 05:48:34;;;;;;;1.9;1.3;;;;;;;4.71;95.86035;95066.67;;;;
2020/02/14 05:49:34;;;;;;;1.9;1.3;;;;;;;4.71;95.86035;95066.67;;;;
2020/02/14 05:50:35;;;;;;;1.9;1.3;;;;;;;4.71;95.86035;95066.67;;;;
2020/02/14 05:51:35;;;;;;;1.9;1.3;;;;;;;4.71;95.86035;95066.67;;;;
2020/02/14 05:52:35;;;;;;;1.9;1.3;;;;;;;4.71;95.86035;95066.67;;;;
2020/02/14 05:53:36;;;;;;;1.9;1.3;;;;;;;4.71;95.86035;95066.67;;;;
2020/02/14 05:54:36;;;;;;;1.9;1.3;;;;;;;4.71;95.86035;95066.67;;;;
2020/02/14 05:55:37;;;;;;;1.9;1.3;;;;;;;4.71;95.86035;95066.67;;;;
2020/02/14 05:56:37;;;;;;;1.9;1.3;;;;;;;4.71;95.86035;95066.67;;;;
2020/02/14 05:57:38;;;;;;;1.9;1.3;;;;;;;4.71;95.86035;95066.67;;;;
2020/02/14 05:58:38;;;;;;;1.95;1.3;;;;;;;4.75;96.31152;95087.98;;;;
2020/02/14 05:59:38;;;;;;;1.95;1.3;;;;;;;4.75;96.31152;95087.98;;;;
2020/02/14 06:00:39;;;;;;;1.95;1.3;;;;;;;4.75;96.31152;95087.98;;;;
2020/02/14 06:01:39;;;;;;;1.95;1.3;;;;;;;4.75;96.31152;95087.98;;;;
2020/02/14 06:02:40;;;;;;;1.95;1.3;;;;;;;4.75;96.31152;95087.98;;;;
2020/02/14 06:03:40;;;;;;;1.95;1.3;;;;;;;4.75;96.31152;95087.98;;;;
2020/02/14 06:04:41;;;;;;;1.95;1.3;;;;;;;4.75;96.31152;95087.98;;;;
2020/02/14 06:05:41;;;;;;;1.95;1.3;;;;;;;4.75;96.31152;95087.98;;;;
2020/02/14 06:06:41;;;;;;;1.95;1.3;;;;;;;4.75;96.31152;95087.98;;;;
2020/02/14 06:07:42;;;;;;;1.95;1.3;;;;;;;4.75;96.31152;95087.98;;;;
2020/02/14 06:08:58;;;;;;;1.95;1.3;;;;;;;4.75;96.31152;95087.98;;;;
2020/02/14 06:09:58;;;;;;;1.95;1.2;;;;;;;4.68;96.2207;95119.62;;;;
2020/02/14 06:10:59;;;;;;;1.95;1.2;;;;;;;4.68;96.2207;95119.62;;;;
2020/02/14 06:11:59;;;;;;;1.95;1.2;;;;;;;4.68;96.2207;95119.62;;;;
2020/02/14 06:12:59;;;;;;;1.95;1.2;;;;;;;4.68;96.2207;95119.62;;;;
2020/02/14 06:14:00;;;;;;;1.95;1.2;;;;;;;4.68;96.2207;95119.62;;;;
2020/02/14 06:15:00;;;;;;;1.95;1.2;;;;;;;4.68;96.2207;95119.62;;;;
2020/02/14 06:16:01;;;;;;;1.95;1.2;;;;;;;4.68;96.2207;95119.62;;;;
2020/02/14 06:17:01;;;;;;;1.95;1.2;;;;;;;4.68;96.2207;95119.62;;;;
2020/02/14 06:18:02;;;;;;;1.95;1.2;;;;;;;4.68;96.2207;95119.62;;;;
2020/02/14 06:19:03;;;;;;;1.95;1.2;;;;;;;4.68;96.2207;95119.62;;;;
2020/02/14 06:20:03;;;;;;;2.95;1.6;;;;;;;4.64;96.71582;95129.91;;;;
2020/02/14 06:21:03;;;;;;;2.95;1.6;;;;;;;4.64;96.71582;95129.91;;;;
2020/02/14 06:22:04;;;;;;;2.95;1.6;;;;;;;4.64;96.71582;95129.91;;;;